sensor_id;sensor_type;location;lat;lon;timestamp;temperature;humidity
21830;DHT22;11077;50.264;6.798;2023-01-19T00:00:46;-1.50;99.90
21830;DHT22;11077;50.264;6.798;2023-01-19T00:03:13;-1.50;99.90
21830;DHT22;11077;50.264;6.798;2023-01-19T00:05:43;-1.50;99.90
21830;DHT22;11077;50.264;6.798;2023-01-19T00:08:11;-1.50;99.90
21830;DHT22;11077;50.264;6.798;2023-01-19T00:10:42;-1.30;99.90
21830;DHT22;11077;50.264;6.798;2023-01-19T00:13:11;-1.40;99.90
21830;DHT22;11077;50.264;6.798;2023-01-19T00:15:39;-1.40;99.90
21830;DHT22;11077;50.264;6.798;2023-01-19T00:18:06;-1.40;99.90
21830;DHT22;11077;50.264;6.798;2023-01-19T00:20:33;-1.40;99.90
21830;DHT22;11077;50.264;6.798;2023-01-19T00:23:01;-1.40;99.90
21830;DHT22;11077;50.264;6.798;2023-01-19T00:25:29;-1.40;99.90
21830;DHT22;11077;50.264;6.798;2023-01-19T00:27:56;-1.40;99.90
21830;DHT22;11077;50.264;6.798;2023-01-19T00:30:25;-1.40;99.90
21830;DHT22;11077;50.264;6.798;2023-01-19T00:32:52;-1.40;99.90
21830;DHT22;11077;50.264;6.798;2023-01-19T00:35:19;-1.40;99.90
21830;DHT22;11077;50.264;6.798;2023-01-19T00:37:47;-1.30;99.90
21830;DHT22;11077;50.264;6.798;2023-01-19T00:40:14;-1.30;99.90
21830;DHT22;11077;50.264;6.798;2023-01-19T00:42:41;-1.40;99.90
21830;DHT22;11077;50.264;6.798;2023-01-19T00:45:11;-1.30;99.90
21830;DHT22;11077;50.264;6.798;2023-01-19T00:47:41;-1.30;99.90
21830;DHT22;11077;50.264;6.798;2023-01-19T00:50:10;-1.30;99.90
21830;DHT22;11077;50.264;6.798;2023-01-19T00:52:37;-1.30;99.90
21830;DHT22;11077;50.264;6.798;2023-01-19T00:55:06;-1.30;99.90
21830;DHT22;11077;50.264;6.798;2023-01-19T00:57:33;-1.30;99.90
21830;DHT22;11077;50.264;6.798;2023-01-19T01:00:01;-1.30;99.90
21830;DHT22;11077;50.264;6.798;2023-01-19T01:02:32;-1.30;99.90
21830;DHT22;11077;50.264;6.798;2023-01-19T01:05:00;-1.30;99.90
21830;DHT22;11077;50.264;6.798;2023-01-19T01:07:28;-1.30;99.90
21830;DHT22;11077;50.264;6.798;2023-01-19T01:09:59;-1.20;99.90
21830;DHT22;11077;50.264;6.798;2023-01-19T01:12:26;-1.30;99.90
21830;DHT22;11077;50.264;6.798;2023-01-19T01:14:54;-1.30;99.90
21830;DHT22;11077;50.264;6.798;2023-01-19T01:17:21;-1.30;99.90
21830;DHT22;11077;50.264;6.798;2023-01-19T01:19:49;-1.40;99.90
21830;DHT22;11077;50.264;6.798;2023-01-19T01:22:18;-1.30;99.90
21830;DHT22;11077;50.264;6.798;2023-01-19T01:24:47;-1.40;99.90
21830;DHT22;11077;50.264;6.798;2023-01-19T01:27:14;-1.40;99.90
21830;DHT22;11077;50.264;6.798;2023-01-19T01:29:41;-1.40;99.90
21830;DHT22;11077;50.264;6.798;2023-01-19T01:32:11;-1.40;99.90
21830;DHT22;11077;50.264;6.798;2023-01-19T01:34:39;-1.40;99.90
21830;DHT22;11077;50.264;6.798;2023-01-19T01:37:07;-1.40;99.90
21830;DHT22;11077;50.264;6.798;2023-01-19T01:39:36;-1.40;99.90
21830;DHT22;11077;50.264;6.798;2023-01-19T01:42:14;-1.30;99.90
21830;DHT22;11077;50.264;6.798;2023-01-19T01:44:44;-1.30;99.90
21830;DHT22;11077;50.264;6.798;2023-01-19T01:47:20;-1.30;99.90
21830;DHT22;11077;50.264;6.798;2023-01-19T01:49:55;-1.30;99.90
21830;DHT22;11077;50.264;6.798;2023-01-19T01:52:25;-1.30;99.90
21830;DHT22;11077;50.264;6.798;2023-01-19T01:54:55;-1.30;99.90
21830;DHT22;11077;50.264;6.798;2023-01-19T01:57:23;-1.20;99.90
21830;DHT22;11077;50.264;6.798;2023-01-19T01:59:54;-1.20;99.90
21830;DHT22;11077;50.264;6.798;2023-01-19T02:02:24;-1.20;99.90
21830;DHT22;11077;50.264;6.798;2023-01-19T02:05:14;-1.20;99.90
21830;DHT22;11077;50.264;6.798;2023-01-19T02:07:46;-1.20;99.90
21830;DHT22;11077;50.264;6.798;2023-01-19T02:10:33;-1.20;99.90
21830;DHT22;11077;50.264;6.798;2023-01-19T02:13:19;-1.20;99.90
21830;DHT22;11077;50.264;6.798;2023-01-19T02:15:48;-1.30;99.90
21830;DHT22;11077;50.264;6.798;2023-01-19T02:18:17;-1.20;99.90
21830;DHT22;11077;50.264;6.798;2023-01-19T02:20:52;-1.20;99.90
21830;DHT22;11077;50.264;6.798;2023-01-19T02:23:30;-1.20;99.90
21830;DHT22;11077;50.264;6.798;2023-01-19T02:26:00;-1.20;99.90
21830;DHT22;11077;50.264;6.798;2023-01-19T02:28:28;-1.20;99.90
21830;DHT22;11077;50.264;6.798;2023-01-19T02:30:56;-1.10;99.90
21830;DHT22;11077;50.264;6.798;2023-01-19T02:33:24;-1.10;99.90
21830;DHT22;11077;50.264;6.798;2023-01-19T02:35:52;-1.10;99.90
21830;DHT22;11077;50.264;6.798;2023-01-19T02:38:24;-1.10;99.90
21830;DHT22;11077;50.264;6.798;2023-01-19T02:40:54;-1.10;99.90
21830;DHT22;11077;50.264;6.798;2023-01-19T02:43:23;-1.00;99.90
21830;DHT22;11077;50.264;6.798;2023-01-19T02:45:51;-1.00;99.90
21830;DHT22;11077;50.264;6.798;2023-01-19T02:48:19;-1.00;99.90
21830;DHT22;11077;50.264;6.798;2023-01-19T02:50:49;-1.00;99.90
21830;DHT22;11077;50.264;6.798;2023-01-19T02:53:36;-1.10;99.90
21830;DHT22;11077;50.264;6.798;2023-01-19T02:56:20;-1.10;99.90
21830;DHT22;11077;50.264;6.798;2023-01-19T02:58:55;-1.10;99.90
21830;DHT22;11077;50.264;6.798;2023-01-19T03:01:32;-1.10;99.90
21830;DHT22;11077;50.264;6.798;2023-01-19T03:04:08;-1.00;99.90
21830;DHT22;11077;50.264;6.798;2023-01-19T03:06:43;-1.20;99.90
21830;DHT22;11077;50.264;6.798;2023-01-19T03:09:14;-1.20;99.90
21830;DHT22;11077;50.264;6.798;2023-01-19T03:11:55;-1.20;99.90
21830;DHT22;11077;50.264;6.798;2023-01-19T03:14:30;-1.20;99.90
21830;DHT22;11077;50.264;6.798;2023-01-19T03:17:01;-1.20;99.90
21830;DHT22;11077;50.264;6.798;2023-01-19T03:19:34;-1.30;99.90
21830;DHT22;11077;50.264;6.798;2023-01-19T03:22:04;-1.30;99.90
21830;DHT22;11077;50.264;6.798;2023-01-19T03:24:36;-1.30;99.90
21830;DHT22;11077;50.264;6.798;2023-01-19T03:27:09;-1.30;99.90
21830;DHT22;11077;50.264;6.798;2023-01-19T03:29:40;-1.30;99.90
21830;DHT22;11077;50.264;6.798;2023-01-19T03:32:11;-1.30;99.90
21830;DHT22;11077;50.264;6.798;2023-01-19T03:34:41;-1.30;99.90
21830;DHT22;11077;50.264;6.798;2023-01-19T03:37:10;-1.30;99.90
21830;DHT22;11077;50.264;6.798;2023-01-19T03:39:40;-1.40;99.90
21830;DHT22;11077;50.264;6.798;2023-01-19T03:42:12;-1.20;99.90
21830;DHT22;11077;50.264;6.798;2023-01-19T03:44:41;-1.30;99.90
21830;DHT22;11077;50.264;6.798;2023-01-19T03:47:11;-1.20;99.90
21830;DHT22;11077;50.264;6.798;2023-01-19T03:49:40;-1.10;99.90
21830;DHT22;11077;50.264;6.798;2023-01-19T03:52:09;-1.20;99.90
21830;DHT22;11077;50.264;6.798;2023-01-19T03:54:37;-1.20;99.90
21830;DHT22;11077;50.264;6.798;2023-01-19T03:57:05;-1.20;99.90
21830;DHT22;11077;50.264;6.798;2023-01-19T03:59:35;-1.10;99.90
21830;DHT22;11077;50.264;6.798;2023-01-19T04:02:02;-1.10;99.90
21830;DHT22;11077;50.264;6.798;2023-01-19T04:04:29;-1.10;99.90
21830;DHT22;11077;50.264;6.798;2023-01-19T04:06:56;-1.10;99.90
21830;DHT22;11077;50.264;6.798;2023-01-19T04:09:24;-1.10;99.90
21830;DHT22;11077;50.264;6.798;2023-01-19T04:11:52;-1.10;99.90
21830;DHT22;11077;50.264;6.798;2023-01-19T04:14:19;-1.10;99.90
21830;DHT22;11077;50.264;6.798;2023-01-19T04:16:48;-1.00;99.90
21830;DHT22;11077;50.264;6.798;2023-01-19T04:19:15;-1.10;99.90
21830;DHT22;11077;50.264;6.798;2023-01-19T04:21:42;-1.10;99.90
21830;DHT22;11077;50.264;6.798;2023-01-19T04:24:10;-1.10;99.90
21830;DHT22;11077;50.264;6.798;2023-01-19T04:26:37;-1.10;99.90
21830;DHT22;11077;50.264;6.798;2023-01-19T04:29:05;-1.10;99.90
21830;DHT22;11077;50.264;6.798;2023-01-19T04:31:32;-1.00;99.90
21830;DHT22;11077;50.264;6.798;2023-01-19T04:34:02;-1.10;99.90
21830;DHT22;11077;50.264;6.798;2023-01-19T04:36:29;-1.10;99.90
21830;DHT22;11077;50.264;6.798;2023-01-19T04:38:56;-1.00;99.90
21830;DHT22;11077;50.264;6.798;2023-01-19T04:41:23;-1.00;99.90
21830;DHT22;11077;50.264;6.798;2023-01-19T04:43:51;-1.00;99.90
21830;DHT22;11077;50.264;6.798;2023-01-19T04:46:18;-1.10;99.90
21830;DHT22;11077;50.264;6.798;2023-01-19T04:48:45;-1.00;99.90
21830;DHT22;11077;50.264;6.798;2023-01-19T04:51:14;-1.10;99.90
21830;DHT22;11077;50.264;6.798;2023-01-19T04:53:41;-1.00;99.90
21830;DHT22;11077;50.264;6.798;2023-01-19T04:56:08;-1.10;99.90
21830;DHT22;11077;50.264;6.798;2023-01-19T04:58:35;-1.10;99.90
21830;DHT22;11077;50.264;6.798;2023-01-19T05:01:06;-1.10;99.90
21830;DHT22;11077;50.264;6.798;2023-01-19T05:03:34;-1.00;99.90
21830;DHT22;11077;50.264;6.798;2023-01-19T05:06:01;-1.00;99.90
21830;DHT22;11077;50.264;6.798;2023-01-19T05:08:30;-1.10;99.90
21830;DHT22;11077;50.264;6.798;2023-01-19T05:10:58;-1.10;99.90
21830;DHT22;11077;50.264;6.798;2023-01-19T05:13:25;-1.00;99.90
21830;DHT22;11077;50.264;6.798;2023-01-19T05:15:52;-1.00;99.90
21830;DHT22;11077;50.264;6.798;2023-01-19T05:18:19;-1.10;99.90
21830;DHT22;11077;50.264;6.798;2023-01-19T05:20:46;-1.10;99.90
21830;DHT22;11077;50.264;6.798;2023-01-19T05:23:14;-1.10;99.90
21830;DHT22;11077;50.264;6.798;2023-01-19T05:25:43;-0.90;99.90
21830;DHT22;11077;50.264;6.798;2023-01-19T05:28:10;-1.10;99.90
21830;DHT22;11077;50.264;6.798;2023-01-19T05:30:37;-1.00;99.90
21830;DHT22;11077;50.264;6.798;2023-01-19T05:33:04;-1.00;99.90
21830;DHT22;11077;50.264;6.798;2023-01-19T05:35:32;-1.00;99.90
21830;DHT22;11077;50.264;6.798;2023-01-19T05:37:59;-1.00;99.90
21830;DHT22;11077;50.264;6.798;2023-01-19T05:40:26;-1.00;99.90
21830;DHT22;11077;50.264;6.798;2023-01-19T05:42:55;-1.10;99.90
21830;DHT22;11077;50.264;6.798;2023-01-19T05:45:25;-1.00;99.90
21830;DHT22;11077;50.264;6.798;2023-01-19T05:47:53;-1.00;99.90
21830;DHT22;11077;50.264;6.798;2023-01-19T05:50:20;-1.00;99.90
21830;DHT22;11077;50.264;6.798;2023-01-19T05:52:48;-1.00;99.90
21830;DHT22;11077;50.264;6.798;2023-01-19T05:55:18;-1.00;99.90
21830;DHT22;11077;50.264;6.798;2023-01-19T05:57:45;-1.10;99.90
21830;DHT22;11077;50.264;6.798;2023-01-19T06:00:15;-1.10;99.90
21830;DHT22;11077;50.264;6.798;2023-01-19T06:02:42;-1.00;99.90
21830;DHT22;11077;50.264;6.798;2023-01-19T06:05:10;-1.00;99.90
21830;DHT22;11077;50.264;6.798;2023-01-19T06:07:39;-1.00;99.90
21830;DHT22;11077;50.264;6.798;2023-01-19T06:10:07;-1.00;99.90
21830;DHT22;11077;50.264;6.798;2023-01-19T06:12:34;-1.00;99.90
21830;DHT22;11077;50.264;6.798;2023-01-19T06:15:02;-1.00;99.90
21830;DHT22;11077;50.264;6.798;2023-01-19T06:17:34;-1.00;99.90
21830;DHT22;11077;50.264;6.798;2023-01-19T06:20:02;-1.00;99.90
21830;DHT22;11077;50.264;6.798;2023-01-19T06:22:30;-0.90;99.90
21830;DHT22;11077;50.264;6.798;2023-01-19T06:24:57;-0.90;99.90
21830;DHT22;11077;50.264;6.798;2023-01-19T06:27:24;-1.00;99.90
21830;DHT22;11077;50.264;6.798;2023-01-19T06:29:52;-0.90;99.90
21830;DHT22;11077;50.264;6.798;2023-01-19T06:32:21;-0.90;99.90
21830;DHT22;11077;50.264;6.798;2023-01-19T06:34:54;-1.00;99.90
21830;DHT22;11077;50.264;6.798;2023-01-19T06:37:22;-1.00;99.90
21830;DHT22;11077;50.264;6.798;2023-01-19T06:39:51;-1.00;99.90
21830;DHT22;11077;50.264;6.798;2023-01-19T06:42:18;-0.90;99.90
21830;DHT22;11077;50.264;6.798;2023-01-19T06:44:46;-1.00;99.90
21830;DHT22;11077;50.264;6.798;2023-01-19T06:47:13;-1.00;99.90
21830;DHT22;11077;50.264;6.798;2023-01-19T06:49:40;-1.00;99.90
21830;DHT22;11077;50.264;6.798;2023-01-19T06:52:09;-0.90;99.90
21830;DHT22;11077;50.264;6.798;2023-01-19T06:54:38;-1.00;99.90
21830;DHT22;11077;50.264;6.798;2023-01-19T06:57:05;-0.90;99.90
21830;DHT22;11077;50.264;6.798;2023-01-19T06:59:32;-0.90;99.90
21830;DHT22;11077;50.264;6.798;2023-01-19T07:02:00;-0.90;99.90
21830;DHT22;11077;50.264;6.798;2023-01-19T07:04:27;-0.90;99.90
21830;DHT22;11077;50.264;6.798;2023-01-19T07:06:54;-0.90;99.90
21830;DHT22;11077;50.264;6.798;2023-01-19T07:09:23;-1.00;99.90
21830;DHT22;11077;50.264;6.798;2023-01-19T07:11:52;-1.00;99.90
21830;DHT22;11077;50.264;6.798;2023-01-19T07:14:20;-0.90;99.90
21830;DHT22;11077;50.264;6.798;2023-01-19T07:16:47;-1.00;99.90
21830;DHT22;11077;50.264;6.798;2023-01-19T07:19:15;-0.90;99.90
21830;DHT22;11077;50.264;6.798;2023-01-19T07:21:43;-0.90;99.90
21830;DHT22;11077;50.264;6.798;2023-01-19T07:24:11;-0.90;99.90
21830;DHT22;11077;50.264;6.798;2023-01-19T07:26:40;-0.90;99.90
21830;DHT22;11077;50.264;6.798;2023-01-19T07:29:07;-0.90;99.90
21830;DHT22;11077;50.264;6.798;2023-01-19T07:31:34;-0.90;99.90
21830;DHT22;11077;50.264;6.798;2023-01-19T07:34:02;-0.90;99.90
21830;DHT22;11077;50.264;6.798;2023-01-19T07:36:30;-1.00;99.90
21830;DHT22;11077;50.264;6.798;2023-01-19T07:38:57;-1.00;99.90
21830;DHT22;11077;50.264;6.798;2023-01-19T07:41:25;-1.00;99.90
21830;DHT22;11077;50.264;6.798;2023-01-19T07:43:54;-1.00;99.90
21830;DHT22;11077;50.264;6.798;2023-01-19T07:46:22;-1.00;99.90
21830;DHT22;11077;50.264;6.798;2023-01-19T07:48:50;-1.00;99.90
21830;DHT22;11077;50.264;6.798;2023-01-19T07:51:17;-1.00;99.90
21830;DHT22;11077;50.264;6.798;2023-01-19T07:53:45;-1.00;99.90
21830;DHT22;11077;50.264;6.798;2023-01-19T07:56:13;-0.80;99.90
21830;DHT22;11077;50.264;6.798;2023-01-19T07:58:41;-0.90;99.90
21830;DHT22;11077;50.264;6.798;2023-01-19T08:01:11;-1.00;99.90
21830;DHT22;11077;50.264;6.798;2023-01-19T08:03:39;-1.00;99.90
21830;DHT22;11077;50.264;6.798;2023-01-19T08:06:11;-0.90;99.90
21830;DHT22;11077;50.264;6.798;2023-01-19T08:08:43;-0.90;99.90
21830;DHT22;11077;50.264;6.798;2023-01-19T08:11:13;-0.90;99.90
21830;DHT22;11077;50.264;6.798;2023-01-19T08:13:41;-0.90;99.90
21830;DHT22;11077;50.264;6.798;2023-01-19T08:16:10;-0.90;99.90
21830;DHT22;11077;50.264;6.798;2023-01-19T08:18:38;-0.90;99.90
21830;DHT22;11077;50.264;6.798;2023-01-19T08:21:06;-0.90;99.90
21830;DHT22;11077;50.264;6.798;2023-01-19T08:23:33;-0.90;99.90
21830;DHT22;11077;50.264;6.798;2023-01-19T08:26:01;-0.90;99.90
21830;DHT22;11077;50.264;6.798;2023-01-19T08:28:28;-0.90;99.90
21830;DHT22;11077;50.264;6.798;2023-01-19T08:30:56;-0.90;99.90
21830;DHT22;11077;50.264;6.798;2023-01-19T08:33:25;-0.90;99.90
21830;DHT22;11077;50.264;6.798;2023-01-19T08:35:53;-0.80;99.90
21830;DHT22;11077;50.264;6.798;2023-01-19T08:38:20;-0.80;99.90
21830;DHT22;11077;50.264;6.798;2023-01-19T08:40:48;-0.80;99.90
21830;DHT22;11077;50.264;6.798;2023-01-19T08:43:16;-0.70;99.90
21830;DHT22;11077;50.264;6.798;2023-01-19T08:45:48;-0.60;99.90
21830;DHT22;11077;50.264;6.798;2023-01-19T08:48:19;-0.70;99.90
21830;DHT22;11077;50.264;6.798;2023-01-19T08:50:51;-0.70;99.90
21830;DHT22;11077;50.264;6.798;2023-01-19T08:53:21;-0.60;99.90
21830;DHT22;11077;50.264;6.798;2023-01-19T08:55:59;-0.50;99.90
21830;DHT22;11077;50.264;6.798;2023-01-19T08:58:27;-0.60;99.90
21830;DHT22;11077;50.264;6.798;2023-01-19T09:00:59;-0.60;99.90
21830;DHT22;11077;50.264;6.798;2023-01-19T09:03:31;-0.60;99.90
21830;DHT22;11077;50.264;6.798;2023-01-19T09:06:08;-0.60;99.90
21830;DHT22;11077;50.264;6.798;2023-01-19T09:08:40;-0.60;99.90
21830;DHT22;11077;50.264;6.798;2023-01-19T09:11:11;-0.60;99.90
21830;DHT22;11077;50.264;6.798;2023-01-19T09:13:44;-0.60;99.90
21830;DHT22;11077;50.264;6.798;2023-01-19T09:16:16;-0.50;99.90
21830;DHT22;11077;50.264;6.798;2023-01-19T09:18:45;-0.60;99.90
21830;DHT22;11077;50.264;6.798;2023-01-19T09:21:27;-0.60;99.90
21830;DHT22;11077;50.264;6.798;2023-01-19T09:23:54;-0.60;99.90
21830;DHT22;11077;50.264;6.798;2023-01-19T09:26:24;-0.60;99.90
21830;DHT22;11077;50.264;6.798;2023-01-19T09:28:57;-0.60;99.90
21830;DHT22;11077;50.264;6.798;2023-01-19T09:31:35;-0.50;99.90
21830;DHT22;11077;50.264;6.798;2023-01-19T09:34:16;-0.50;99.90
21830;DHT22;11077;50.264;6.798;2023-01-19T09:36:52;-0.50;99.90
21830;DHT22;11077;50.264;6.798;2023-01-19T09:39:19;-0.50;99.90
21830;DHT22;11077;50.264;6.798;2023-01-19T09:42:04;-0.50;99.90
21830;DHT22;11077;50.264;6.798;2023-01-19T09:44:36;-0.50;99.90
21830;DHT22;11077;50.264;6.798;2023-01-19T09:47:16;-0.50;99.90
21830;DHT22;11077;50.264;6.798;2023-01-19T09:49:48;-0.50;99.90
21830;DHT22;11077;50.264;6.798;2023-01-19T09:52:25;-0.50;99.90
21830;DHT22;11077;50.264;6.798;2023-01-19T09:54:56;-0.40;99.90
21830;DHT22;11077;50.264;6.798;2023-01-19T09:57:25;-0.40;99.90
21830;DHT22;11077;50.264;6.798;2023-01-19T10:00:00;-0.50;99.90
21830;DHT22;11077;50.264;6.798;2023-01-19T10:02:41;-0.40;99.90
21830;DHT22;11077;50.264;6.798;2023-01-19T10:05:23;-0.40;99.90
21830;DHT22;11077;50.264;6.798;2023-01-19T10:08:18;-0.30;99.90
21830;DHT22;11077;50.264;6.798;2023-01-19T10:10:53;-0.30;99.90
21830;DHT22;11077;50.264;6.798;2023-01-19T10:13:28;-0.30;99.90
21830;DHT22;11077;50.264;6.798;2023-01-19T10:16:18;-0.30;99.90
21830;DHT22;11077;50.264;6.798;2023-01-19T10:18:59;-0.30;99.90
21830;DHT22;11077;50.264;6.798;2023-01-19T10:21:32;-0.30;99.90
21830;DHT22;11077;50.264;6.798;2023-01-19T10:24:11;-0.30;99.90
21830;DHT22;11077;50.264;6.798;2023-01-19T10:26:49;-0.30;99.90
21830;DHT22;11077;50.264;6.798;2023-01-19T10:29:23;-0.30;99.90
21830;DHT22;11077;50.264;6.798;2023-01-19T10:31:59;-0.30;99.90
21830;DHT22;11077;50.264;6.798;2023-01-19T10:34:37;-0.30;99.90
21830;DHT22;11077;50.264;6.798;2023-01-19T10:37:16;-0.30;99.90
21830;DHT22;11077;50.264;6.798;2023-01-19T10:40:12;-0.30;99.90
21830;DHT22;11077;50.264;6.798;2023-01-19T10:42:56;-0.30;99.90
21830;DHT22;11077;50.264;6.798;2023-01-19T10:45:27;-0.30;99.90
21830;DHT22;11077;50.264;6.798;2023-01-19T10:47:58;-0.30;99.90
21830;DHT22;11077;50.264;6.798;2023-01-19T10:50:41;-0.30;99.90
21830;DHT22;11077;50.264;6.798;2023-01-19T10:53:20;-0.20;99.90
21830;DHT22;11077;50.264;6.798;2023-01-19T10:56:10;-0.20;99.90
21830;DHT22;11077;50.264;6.798;2023-01-19T10:58:40;-0.20;99.90
21830;DHT22;11077;50.264;6.798;2023-01-19T11:01:16;-0.10;99.90
21830;DHT22;11077;50.264;6.798;2023-01-19T11:03:51;-0.10;99.90
21830;DHT22;11077;50.264;6.798;2023-01-19T11:06:27;-0.10;99.90
21830;DHT22;11077;50.264;6.798;2023-01-19T11:09:14;-0.20;99.90
21830;DHT22;11077;50.264;6.798;2023-01-19T11:14:39;-0.20;99.90
21830;DHT22;11077;50.264;6.798;2023-01-19T11:17:17;-0.10;99.90
21830;DHT22;11077;50.264;6.798;2023-01-19T11:19:59;-0.10;99.90
21830;DHT22;11077;50.264;6.798;2023-01-19T11:22:32;-0.10;99.90
21830;DHT22;11077;50.264;6.798;2023-01-19T11:25:04;0.00;99.90
21830;DHT22;11077;50.264;6.798;2023-01-19T11:27:36;0.00;99.90
21830;DHT22;11077;50.264;6.798;2023-01-19T11:30:17;0.10;99.90
21830;DHT22;11077;50.264;6.798;2023-01-19T11:32:48;0.10;99.90
21830;DHT22;11077;50.264;6.798;2023-01-19T11:35:40;0.10;99.90
21830;DHT22;11077;50.264;6.798;2023-01-19T11:38:16;0.10;99.90
21830;DHT22;11077;50.264;6.798;2023-01-19T11:40:52;0.10;99.90
21830;DHT22;11077;50.264;6.798;2023-01-19T11:43:21;0.10;99.90
21830;DHT22;11077;50.264;6.798;2023-01-19T11:45:50;0.10;99.90
21830;DHT22;11077;50.264;6.798;2023-01-19T11:48:29;0.10;99.90
21830;DHT22;11077;50.264;6.798;2023-01-19T11:51:04;0.20;99.90
21830;DHT22;11077;50.264;6.798;2023-01-19T11:53:41;0.20;99.90
21830;DHT22;11077;50.264;6.798;2023-01-19T11:56:10;0.30;99.90
21830;DHT22;11077;50.264;6.798;2023-01-19T11:58:41;0.20;99.90
21830;DHT22;11077;50.264;6.798;2023-01-19T12:01:16;0.30;99.90
21830;DHT22;11077;50.264;6.798;2023-01-19T12:03:50;0.30;99.90
21830;DHT22;11077;50.264;6.798;2023-01-19T12:06:20;0.30;99.90
21830;DHT22;11077;50.264;6.798;2023-01-19T12:08:53;0.30;99.90
21830;DHT22;11077;50.264;6.798;2023-01-19T12:11:26;0.30;99.90
21830;DHT22;11077;50.264;6.798;2023-01-19T12:14:01;0.30;99.90
21830;DHT22;11077;50.264;6.798;2023-01-19T12:16:31;0.40;99.90
21830;DHT22;11077;50.264;6.798;2023-01-19T12:19:02;0.40;99.90
21830;DHT22;11077;50.264;6.798;2023-01-19T12:21:31;0.40;99.90
21830;DHT22;11077;50.264;6.798;2023-01-19T12:24:07;0.40;99.90
21830;DHT22;11077;50.264;6.798;2023-01-19T12:26:46;0.40;99.90
21830;DHT22;11077;50.264;6.798;2023-01-19T12:29:17;0.40;99.90
21830;DHT22;11077;50.264;6.798;2023-01-19T12:32:18;0.40;99.90
21830;DHT22;11077;50.264;6.798;2023-01-19T12:34:49;0.40;99.90
21830;DHT22;11077;50.264;6.798;2023-01-19T12:37:33;0.50;99.90
21830;DHT22;11077;50.264;6.798;2023-01-19T12:40:16;0.50;99.90
21830;DHT22;11077;50.264;6.798;2023-01-19T12:42:46;0.60;99.90
21830;DHT22;11077;50.264;6.798;2023-01-19T12:45:16;0.60;99.90
21830;DHT22;11077;50.264;6.798;2023-01-19T12:47:53;0.60;99.90
21830;DHT22;11077;50.264;6.798;2023-01-19T12:50:22;0.60;99.90
21830;DHT22;11077;50.264;6.798;2023-01-19T12:52:53;0.60;99.90
21830;DHT22;11077;50.264;6.798;2023-01-19T12:55:25;0.60;99.90
21830;DHT22;11077;50.264;6.798;2023-01-19T12:57:59;0.60;99.90
21830;DHT22;11077;50.264;6.798;2023-01-19T13:00:31;0.70;99.90
21830;DHT22;11077;50.264;6.798;2023-01-19T13:03:40;0.90;99.90
21830;DHT22;11077;50.264;6.798;2023-01-19T13:05:53;0.70;99.90
21830;DHT22;11077;50.264;6.798;2023-01-19T13:08:27;0.70;99.90
21830;DHT22;11077;50.264;6.798;2023-01-19T13:11:18;0.70;99.90
21830;DHT22;11077;50.264;6.798;2023-01-19T13:16:59;0.70;99.90
21830;DHT22;11077;50.264;6.798;2023-01-19T13:19:37;0.70;99.90
21830;DHT22;11077;50.264;6.798;2023-01-19T13:25:33;0.70;99.90
21830;DHT22;11077;50.264;6.798;2023-01-19T13:28:07;0.70;99.90
21830;DHT22;11077;50.264;6.798;2023-01-19T13:30:44;0.70;99.90
21830;DHT22;11077;50.264;6.798;2023-01-19T13:33:19;0.60;99.90
21830;DHT22;11077;50.264;6.798;2023-01-19T13:35:53;0.60;99.90
21830;DHT22;11077;50.264;6.798;2023-01-19T13:38:22;0.70;99.90
21830;DHT22;11077;50.264;6.798;2023-01-19T13:40:51;0.60;99.90
21830;DHT22;11077;50.264;6.798;2023-01-19T13:43:25;0.60;99.90
21830;DHT22;11077;50.264;6.798;2023-01-19T13:45:55;0.60;99.90
21830;DHT22;11077;50.264;6.798;2023-01-19T13:48:23;0.60;99.90
21830;DHT22;11077;50.264;6.798;2023-01-19T13:51:01;0.70;99.90
21830;DHT22;11077;50.264;6.798;2023-01-19T13:53:29;0.60;99.90
21830;DHT22;11077;50.264;6.798;2023-01-19T13:56:24;0.60;99.90
21830;DHT22;11077;50.264;6.798;2023-01-19T13:59:04;0.60;99.90
21830;DHT22;11077;50.264;6.798;2023-01-19T14:01:36;0.60;99.90
21830;DHT22;11077;50.264;6.798;2023-01-19T14:04:05;0.60;99.90
21830;DHT22;11077;50.264;6.798;2023-01-19T14:06:36;0.50;99.90
21830;DHT22;11077;50.264;6.798;2023-01-19T14:09:15;0.50;99.90
21830;DHT22;11077;50.264;6.798;2023-01-19T14:11:44;0.50;99.90
21830;DHT22;11077;50.264;6.798;2023-01-19T14:14:23;0.50;99.90
21830;DHT22;11077;50.264;6.798;2023-01-19T14:16:50;0.50;99.90
21830;DHT22;11077;50.264;6.798;2023-01-19T14:19:18;0.50;99.90
21830;DHT22;11077;50.264;6.798;2023-01-19T14:21:57;0.50;99.90
21830;DHT22;11077;50.264;6.798;2023-01-19T14:24:25;0.50;99.90
21830;DHT22;11077;50.264;6.798;2023-01-19T14:27:07;0.50;99.90
21830;DHT22;11077;50.264;6.798;2023-01-19T14:29:37;0.50;99.90
21830;DHT22;11077;50.264;6.798;2023-01-19T14:32:10;0.50;99.90
21830;DHT22;11077;50.264;6.798;2023-01-19T14:34:40;0.50;99.90
21830;DHT22;11077;50.264;6.798;2023-01-19T14:37:25;0.50;99.90
21830;DHT22;11077;50.264;6.798;2023-01-19T14:39:57;0.50;99.90
21830;DHT22;11077;50.264;6.798;2023-01-19T14:42:29;0.50;99.90
21830;DHT22;11077;50.264;6.798;2023-01-19T14:44:59;0.50;99.90
21830;DHT22;11077;50.264;6.798;2023-01-19T14:47:33;0.50;99.90
21830;DHT22;11077;50.264;6.798;2023-01-19T14:50:05;0.50;99.90
21830;DHT22;11077;50.264;6.798;2023-01-19T14:52:39;0.50;99.90
21830;DHT22;11077;50.264;6.798;2023-01-19T14:55:17;0.50;99.90
21830;DHT22;11077;50.264;6.798;2023-01-19T14:57:46;0.50;99.90
21830;DHT22;11077;50.264;6.798;2023-01-19T15:00:15;0.60;99.90
21830;DHT22;11077;50.264;6.798;2023-01-19T15:02:45;0.50;99.90
21830;DHT22;11077;50.264;6.798;2023-01-19T15:05:13;0.50;99.90
21830;DHT22;11077;50.264;6.798;2023-01-19T15:07:43;0.50;99.90
21830;DHT22;11077;50.264;6.798;2023-01-19T15:10:16;0.50;99.90
21830;DHT22;11077;50.264;6.798;2023-01-19T15:12:44;0.50;99.90
21830;DHT22;11077;50.264;6.798;2023-01-19T15:15:16;0.50;99.90
21830;DHT22;11077;50.264;6.798;2023-01-19T15:17:44;0.50;99.90
21830;DHT22;11077;50.264;6.798;2023-01-19T15:20:14;0.50;99.90
21830;DHT22;11077;50.264;6.798;2023-01-19T15:22:44;0.50;99.90
21830;DHT22;11077;50.264;6.798;2023-01-19T15:25:12;0.50;99.90
21830;DHT22;11077;50.264;6.798;2023-01-19T15:27:40;0.40;99.90
21830;DHT22;11077;50.264;6.798;2023-01-19T15:30:13;0.50;99.90
21830;DHT22;11077;50.264;6.798;2023-01-19T15:32:42;0.40;99.90
21830;DHT22;11077;50.264;6.798;2023-01-19T15:35:14;0.50;99.90
21830;DHT22;11077;50.264;6.798;2023-01-19T15:37:43;0.50;99.90
21830;DHT22;11077;50.264;6.798;2023-01-19T15:40:11;0.40;99.90
21830;DHT22;11077;50.264;6.798;2023-01-19T15:42:39;0.50;99.90
21830;DHT22;11077;50.264;6.798;2023-01-19T15:45:32;0.50;99.90
21830;DHT22;11077;50.264;6.798;2023-01-19T15:48:01;0.40;99.90
21830;DHT22;11077;50.264;6.798;2023-01-19T15:50:29;0.40;99.90
21830;DHT22;11077;50.264;6.798;2023-01-19T15:53:01;0.40;99.90
21830;DHT22;11077;50.264;6.798;2023-01-19T15:55:32;0.40;99.90
21830;DHT22;11077;50.264;6.798;2023-01-19T15:57:59;0.40;99.90
21830;DHT22;11077;50.264;6.798;2023-01-19T16:00:28;0.30;99.90
21830;DHT22;11077;50.264;6.798;2023-01-19T16:02:56;0.30;99.90
21830;DHT22;11077;50.264;6.798;2023-01-19T16:05:23;0.30;99.90
21830;DHT22;11077;50.264;6.798;2023-01-19T16:07:51;0.30;99.90
21830;DHT22;11077;50.264;6.798;2023-01-19T16:10:20;0.20;99.90